createdAt,value
2018-09-25T00:55:38.158Z,7.3
2018-09-25T00:56:27.609Z,7.3
2018-09-25T00:57:17.951Z,7.3
2018-09-25T00:58:08.029Z,7.3
2018-09-25T00:58:58.086Z,7.3
2018-09-25T00:59:47.873Z,7.3
2018-09-25T01:00:37.905Z,7.3
2018-09-25T01:01:27.973Z,7.3
2018-09-25T01:02:18.316Z,7.3
2018-09-25T01:03:08.404Z,7.3
2018-09-25T01:03:58.169Z,7.3
2018-09-25T01:04:48.549Z,7.3
2018-09-25T01:05:38.573Z,7.3
2018-09-25T01:06:28.685Z,7.3
2018-09-25T01:07:18.710Z,7.3
2018-09-25T01:08:08.743Z,7.3
2018-09-25T01:08:58.806Z,7.3
2018-09-25T01:09:48.857Z,7.3
2018-09-25T01:10:38.659Z,7.3
2018-09-25T01:11:29.042Z,7.3
2018-09-25T01:12:18.793Z,7.3
2018-09-25T01:13:09.120Z,7.3
2018-09-25T01:13:58.907Z,7.3
2018-09-25T01:14:49.019Z,7.3
2018-09-25T01:15:39.342Z,7.3
2018-09-25T01:16:29.392Z,7.3
2018-09-25T01:17:19.441Z,7.3
2018-09-25T01:18:09.488Z,7.3
2018-09-25T01:18:59.569Z,7.3
2018-09-25T01:19:49.595Z,7.3
2018-09-25T01:20:39.700Z,7.2
2018-09-25T01:21:29.741Z,7.2
2018-09-25T01:22:19.531Z,7.3
2018-09-25T01:23:10.132Z,7.2
2018-09-25T01:23:59.927Z,7.2
2018-09-25T01:24:50.054Z,7.2
2018-09-25T01:25:40.075Z,7.2
2018-09-25T01:26:30.114Z,7.2
2018-09-25T01:27:20.226Z,7.2
2018-09-25T01:28:09.971Z,7.2
2018-09-25T01:29:00.319Z,7.2
2018-09-25T01:29:50.396Z,7.2
2018-09-25T01:30:39.908Z,7.2
2018-09-25T01:31:30.500Z,7.1
2018-09-25T01:32:20.613Z,7.1
2018-09-25T01:33:10.334Z,7.1
2018-09-25T01:34:00.395Z,7.1
2018-09-25T01:34:50.508Z,7.1
2018-09-25T01:35:41.068Z,7.1
2018-09-25T01:36:30.598Z,7.1
2018-09-25T01:37:20.904Z,7.1
2018-09-25T01:38:10.988Z,7.1
2018-09-25T01:39:01.055Z,7.1
2018-09-25T01:39:51.366Z,7.1
2018-09-25T01:40:41.214Z,7.1
2018-09-25T01:41:30.951Z,7.1
2018-09-25T01:42:21.025Z,7
2018-09-25T01:43:11.087Z,7
2018-09-25T01:44:01.428Z,7
2018-09-25T01:44:51.493Z,7
2018-09-25T01:45:41.575Z,7
2018-09-25T01:46:31.640Z,7
2018-09-25T01:47:21.683Z,6.9
2018-09-25T01:48:11.735Z,6.9
2018-09-25T01:49:01.833Z,6.9
2018-09-25T01:49:51.928Z,6.9
2018-09-25T01:50:41.649Z,6.9
2018-09-25T01:51:31.997Z,6.9
2018-09-25T01:52:22.061Z,6.9
2018-09-25T01:53:11.830Z,6.9
2018-09-25T01:54:02.175Z,6.9
2018-09-25T01:54:52.252Z,6.9
2018-09-25T01:55:42.309Z,6.9
2018-09-25T01:56:32.358Z,6.8
2018-09-25T01:57:22.427Z,6.8
2018-09-25T01:58:12.216Z,6.8
2018-09-25T01:59:02.261Z,6.8
2018-09-25T01:59:52.607Z,6.8
2018-09-25T02:00:42.667Z,6.8
2018-09-25T02:01:32.447Z,6.8
2018-09-25T02:02:22.854Z,6.8
2018-09-25T02:03:12.881Z,6.8
2018-09-25T02:04:02.631Z,6.8
2018-09-25T02:04:52.412Z,6.7
2018-09-25T02:05:42.912Z,6.7
2018-09-25T02:06:33.119Z,6.7
2018-09-25T02:07:22.884Z,6.6
2018-09-25T02:08:12.961Z,6.6
2018-09-25T02:09:03.299Z,6.6
2018-09-25T02:09:53.354Z,6.6
2018-09-25T02:10:43.684Z,6.6
2018-09-25T02:11:33.478Z,6.6
2018-09-25T02:12:23.282Z,6.6
2018-09-25T02:13:13.606Z,6.6
2018-09-25T02:14:03.939Z,6.6
2018-09-25T02:14:53.443Z,6.5
2018-09-25T02:15:43.792Z,6.5
2018-09-25T02:16:33.581Z,6.4
2018-09-25T02:17:23.926Z,6.4
2018-09-25T02:18:13.995Z,6.4
2018-09-25T02:19:04.351Z,6.4
2018-09-25T02:19:53.531Z,6.4
2018-09-25T02:20:44.166Z,6.4
2018-09-25T02:21:33.946Z,6.4
2018-09-25T02:22:24.301Z,6.4
2018-09-25T02:23:14.398Z,6.3
2018-09-25T02:24:04.413Z,6.3
2018-09-25T02:24:54.470Z,6.3
2018-09-25T02:25:44.600Z,6.3
2018-09-25T02:26:34.334Z,6.3
2018-09-25T02:27:24.375Z,6.3
2018-09-25T02:28:14.452Z,6.3
2018-09-25T02:29:05.128Z,6.3
2018-09-25T02:29:54.000Z,6.3
2018-09-25T02:30:44.357Z,6.3
2018-09-25T02:31:34.417Z,6.2
2018-09-25T02:32:25.045Z,6.2
2018-09-25T02:33:14.839Z,6.2
2018-09-25T02:34:04.890Z,6.2
2018-09-25T02:34:54.951Z,6.1
2018-09-25T02:35:45.289Z,6.1
2018-09-25T02:36:35.625Z,6.1
2018-09-25T02:37:25.414Z,6.1
2018-09-25T02:38:15.488Z,6.1
2018-09-25T02:39:05.554Z,6.1
2018-09-25T02:39:55.329Z,6.1
2018-09-25T02:40:45.663Z,6.1
2018-09-25T02:41:35.457Z,6
2018-09-25T02:42:25.784Z,6
2018-09-25T02:43:15.851Z,6
2018-09-25T02:44:05.919Z,5.9
2018-09-25T02:44:55.700Z,5.9
2018-09-25T02:45:45.769Z,5.9
2018-09-25T02:46:36.101Z,5.9
2018-09-25T02:47:25.874Z,5.9
2018-09-25T02:48:16.218Z,5.9
2018-09-25T02:49:06.287Z,5.9
2018-09-25T02:49:56.341Z,5.9
2018-09-25T02:50:46.427Z,5.8
2018-09-25T02:51:36.478Z,5.8
2018-09-25T02:52:26.549Z,5.8
2018-09-25T02:53:16.601Z,5.8
2018-09-25T02:54:06.624Z,5.8
2018-09-25T02:54:56.146Z,5.8
2018-09-25T02:55:46.496Z,5.8
2018-09-25T02:56:36.861Z,5.8
2018-09-25T02:57:26.915Z,5.8
2018-09-25T02:58:16.982Z,5.8
2018-09-25T02:59:07.046Z,5.7
2018-09-25T02:59:56.807Z,5.7
2018-09-25T03:00:47.271Z,5.6
2018-09-25T03:01:36.976Z,5.7
2018-09-25T03:02:27.125Z,5.6
2018-09-25T03:03:17.407Z,5.6
2018-09-25T03:04:07.107Z,5.6
2018-09-25T03:04:57.514Z,5.6
2018-09-25T03:05:47.325Z,5.6
2018-09-25T03:06:37.675Z,5.6
2018-09-25T03:07:27.672Z,5.6
2018-09-25T03:08:17.726Z,5.6
2018-09-25T03:09:07.787Z,5.6
2018-09-25T03:09:57.875Z,5.5
2018-09-25T03:10:47.910Z,5.5
2018-09-25T03:11:37.992Z,5.6
2018-09-25T03:12:28.038Z,5.5
2018-09-25T03:13:18.092Z,5.5
2018-09-25T03:14:07.865Z,5.5
2018-09-25T03:14:57.937Z,5.4
2018-09-25T03:15:47.987Z,5.4
2018-09-25T03:16:38.053Z,5.4
2018-09-25T03:17:28.414Z,5.4
2018-09-25T03:18:18.272Z,5.4
2018-09-25T03:19:08.769Z,5.4
2018-09-25T03:19:58.305Z,5.4
2018-09-25T03:20:48.640Z,5.4
2018-09-25T03:21:38.739Z,5.4
2018-09-25T03:22:28.785Z,5.4
2018-09-25T03:23:18.832Z,5.3
2018-09-25T03:24:08.647Z,5.3
2018-09-25T03:24:58.709Z,5.3
2018-09-25T03:25:49.324Z,5.3
2018-09-25T03:26:39.077Z,5.3
2018-09-25T03:27:29.145Z,5.3
2018-09-25T03:28:18.939Z,5.3
2018-09-25T03:29:09.271Z,5.3
2018-09-25T03:29:59.332Z,5.3
2018-09-25T03:30:49.412Z,5.3
2018-09-25T03:31:39.553Z,5.3
2018-09-25T03:32:29.559Z,5.3
2018-09-25T03:33:19.307Z,5.2
2018-09-25T03:34:09.366Z,5.2
2018-09-25T03:34:59.444Z,5.2
2018-09-25T03:35:49.781Z,5.2
2018-09-25T03:36:39.801Z,5.2
2018-09-25T03:37:29.624Z,5.2
2018-09-25T03:38:19.959Z,5.2
2018-09-25T03:39:10.043Z,5.1
2018-09-25T03:40:00.119Z,5.1
2018-09-25T03:40:50.211Z,5.1
2018-09-25T03:41:39.879Z,5.1
2018-09-25T03:42:30.286Z,5.1
2018-09-25T03:43:20.031Z,5.1
2018-09-25T03:44:10.394Z,5.1
2018-09-25T03:45:00.456Z,5.1
2018-09-25T03:45:50.525Z,5.1
2018-09-25T03:46:40.589Z,5.1
2018-09-25T03:47:30.351Z,5.1
2018-09-25T03:48:20.409Z,5.1
2018-09-25T03:49:10.756Z,5.1
2018-09-25T05:24:29.380Z,6.4
2018-09-25T05:25:19.087Z,6.6
2018-09-25T05:26:09.137Z,6.7
2018-09-25T05:26:59.215Z,6.9
2018-09-25T05:27:48.973Z,7
2018-09-25T05:28:39.327Z,7.1
2018-09-25T05:29:29.635Z,7.3
2018-09-25T05:30:19.454Z,7.4
2018-09-25T05:31:09.497Z,7.6
2018-09-25T05:31:59.559Z,7.8
2018-09-25T05:32:49.624Z,7.9
2018-09-25T05:33:39.691Z,8.1
2018-09-25T05:34:29.749Z,8.3
2018-09-25T05:35:19.804Z,8.4
2018-09-25T05:36:09.881Z,8.6
2018-09-25T05:36:59.934Z,8.8
2018-09-25T05:37:50.290Z,9
2018-09-25T05:38:40.056Z,9.2
2018-09-25T05:39:30.128Z,9.4
2018-09-25T05:40:20.179Z,9.6
2018-09-25T05:41:10.257Z,9.9
2018-09-25T05:42:00.314Z,10.1
2018-09-25T05:42:50.386Z,10.3
2018-09-25T05:43:40.426Z,10.6
2018-09-25T05:44:30.494Z,10.8
2018-09-25T05:45:20.549Z,11.1
2018-09-25T05:46:10.616Z,11.3
2018-09-25T05:47:00.679Z,11.6
2018-09-25T05:47:50.755Z,11.8
2018-09-25T05:48:41.093Z,12.1
2018-09-25T05:49:30.944Z,12.4
2018-09-25T05:50:21.040Z,12.7
2018-09-25T05:51:11.114Z,13
2018-09-25T05:52:01.101Z,13.3
2018-09-25T05:52:51.143Z,13.6
2018-09-25T05:53:41.021Z,13.9
2018-09-25T05:54:31.336Z,10.4
2018-09-25T05:55:21.321Z,12.8
2018-09-25T05:56:11.079Z,26.1
2018-09-25T05:57:01.426Z,31.9
2018-09-25T05:57:51.501Z,31.7
2018-09-25T05:58:41.549Z,31.8
2018-09-25T05:59:31.614Z,31.8
2018-09-25T06:00:21.674Z,31.6
2018-09-25T06:01:11.751Z,31.4
2018-09-25T06:02:01.802Z,31.1
2018-09-25T06:02:51.858Z,30.8
2018-09-25T06:03:41.635Z,30.6
2018-09-25T06:04:32.001Z,30.4
2018-09-25T06:05:22.048Z,30.2
2018-09-25T06:06:12.165Z,30
2018-09-25T06:07:02.178Z,29.9
2018-09-25T06:07:51.943Z,29.8
2018-09-25T06:08:42.287Z,29.7
2018-09-25T06:09:32.573Z,29.5
2018-09-25T06:10:22.418Z,29.4
2018-09-25T06:11:12.473Z,29.3
2018-09-25T06:12:02.544Z,29.2
2018-09-25T06:12:52.616Z,29.1
2018-09-25T06:13:42.377Z,29.1
2018-09-25T06:14:32.780Z,30.2
2018-09-25T06:15:22.787Z,32.3
2018-09-25T06:16:12.852Z,35.9
2018-09-25T06:17:02.922Z,35.8
2018-09-25T06:17:52.972Z,38.1
2018-09-25T06:18:43.391Z,39.6
2018-09-25T06:19:33.107Z,39.9
2018-09-25T06:20:23.159Z,39.4
2018-09-25T06:21:13.219Z,38.9
2018-09-25T06:22:03.287Z,38.9
2018-09-25T06:22:53.522Z,39.1
2018-09-25T06:23:43.405Z,39.5
2018-09-25T06:24:33.470Z,39.8
2018-09-25T06:25:23.252Z,40.1
2018-09-25T06:26:13.624Z,40.3
2018-09-25T06:27:03.672Z,40.4
2018-09-25T06:27:53.441Z,40.4
2018-09-25T06:28:43.990Z,40.6
2018-09-25T06:29:33.881Z,40.6
2018-09-25T06:30:23.907Z,40.7
2018-09-25T06:31:13.968Z,40.9
2018-09-25T06:32:03.774Z,41.1
2018-09-25T06:32:54.093Z,41.3
2018-09-25T06:33:44.162Z,41.4
2018-09-25T06:34:34.422Z,41.5
2018-09-25T06:35:24.001Z,41.6
2018-09-25T06:36:14.356Z,41.8
2018-09-25T06:37:04.116Z,41.9
2018-09-25T06:37:54.189Z,42.1
2018-09-25T06:38:44.318Z,42.2
2018-09-25T06:39:34.636Z,42.4
2018-09-25T06:40:24.443Z,42.5
2018-09-25T06:41:14.708Z,42.6
2018-09-25T06:42:04.771Z,42.6
2018-09-25T06:42:54.844Z,42.7
2018-09-25T06:43:44.896Z,42.8
2018-09-25T06:44:34.956Z,42.9
2018-09-25T06:45:25.023Z,42.9
2018-09-25T06:46:15.452Z,43.1
2018-09-25T06:47:05.220Z,43.2
2018-09-25T06:47:55.202Z,43.2
2018-09-25T06:48:45.278Z,43.3
2018-09-25T06:49:35.327Z,43.4
2018-09-25T06:50:25.119Z,43.5
2018-09-25T06:51:15.461Z,43.6
2018-09-25T06:52:05.574Z,43.8
2018-09-25T06:52:55.580Z,43.9
2018-09-25T06:53:45.642Z,44.1
2018-09-25T06:54:35.806Z,44.3
2018-09-25T06:55:25.781Z,44.3
2018-09-25T06:56:15.533Z,44.4
2018-09-25T06:57:05.908Z,44.5
2018-09-25T06:57:55.948Z,44.6
2018-09-25T06:58:46.008Z,44.8
2018-09-25T06:59:36.075Z,44.9
2018-09-25T07:00:26.160Z,45.1
2018-09-25T07:01:16.222Z,45.3
2018-09-25T07:02:06.269Z,45.4
2018-09-25T07:02:56.335Z,45.6
2018-09-25T07:03:46.397Z,45.6
2018-09-25T07:04:36.452Z,45.8
2018-09-25T07:05:26.518Z,45.9
2018-09-25T07:06:16.579Z,46.1
2018-09-25T07:07:06.657Z,46.3
2018-09-25T07:07:56.703Z,46.5
2018-09-25T07:08:46.761Z,46.6
2018-09-25T07:09:37.133Z,46.8
2018-09-25T07:10:27.754Z,46.8
2018-09-25T07:11:16.949Z,46.7
2018-09-25T07:12:07.062Z,46.7
2018-09-25T07:12:56.786Z,46.7
2018-09-25T07:13:47.131Z,46.9
2018-09-25T07:14:37.209Z,47.1
2018-09-25T07:15:27.263Z,47.3
2018-09-25T07:16:17.038Z,47.6
2018-09-25T07:17:07.373Z,47.8
2018-09-25T07:17:57.542Z,47.9
2018-09-25T07:18:47.505Z,48.1
2018-09-25T07:19:37.566Z,48.2
2018-09-25T07:20:27.628Z,48.3
2018-09-25T07:21:17.685Z,48.5
2018-09-25T07:22:07.476Z,48.6
2018-09-25T07:22:58.032Z,48.8
2018-09-25T07:23:47.871Z,48.9
2018-09-25T07:24:38.332Z,49
2018-09-25T07:25:27.998Z,49.1
2018-09-25T07:26:18.070Z,49.3
2018-09-25T07:27:07.840Z,49.4
2018-09-25T07:27:58.179Z,49.6
2018-09-25T07:28:48.245Z,49.6
2018-09-25T07:29:38.327Z,49.8
2018-09-25T07:30:28.335Z,49.8
2018-09-25T07:31:18.432Z,49.9
2018-09-25T07:32:08.500Z,50.1
2018-09-25T07:32:58.570Z,50.3
2018-09-25T07:33:48.335Z,50.4
2018-09-25T07:34:38.737Z,50.5
2018-09-25T07:35:28.754Z,50.6
2018-09-25T07:36:18.830Z,50.7
2018-09-25T07:37:08.889Z,50.7
2018-09-25T07:37:58.900Z,50.8
2018-09-25T07:38:49.027Z,50.9
2018-09-25T07:39:38.507Z,51
2018-09-25T07:40:28.864Z,51
2018-09-25T07:41:18.926Z,51.1
2018-09-25T07:42:09.082Z,51.3
2018-09-25T07:42:59.372Z,51.4
2018-09-25T07:43:49.106Z,51.7
2018-09-25T07:44:39.461Z,51.9
2018-09-25T07:45:29.224Z,52.1
2018-09-25T07:46:19.599Z,52.2
2018-09-25T07:47:59.851Z,52.5
2018-09-25T07:48:49.753Z,52.6
2018-09-25T07:49:39.821Z,52.8
2018-09-25T07:50:29.840Z,52.9
2018-09-25T07:51:19.936Z,53
2018-09-25T07:52:10.102Z,53.1
2018-09-25T07:53:00.177Z,53.3
2018-09-25T07:53:50.113Z,53.4
2018-09-25T07:54:40.515Z,53.6
2018-09-25T07:55:30.469Z,53.8
2018-09-25T07:56:20.313Z,53.9
2018-09-25T07:57:10.483Z,54.1
2018-09-25T07:58:00.200Z,54.2
2018-09-25T07:58:50.208Z,54.3
2018-09-25T07:59:40.553Z,54.4
2018-09-25T08:00:30.616Z,54.6
2018-09-25T08:01:20.676Z,54.7
2018-09-25T08:02:10.456Z,54.9
2018-09-25T08:03:00.674Z,55
2018-09-25T08:03:50.913Z,55.1
2018-09-25T08:04:40.930Z,55.3
2018-09-25T08:05:31.000Z,55.4
2018-09-25T08:06:21.065Z,55.6
2018-09-25T08:07:11.125Z,55.7
2018-09-25T08:08:01.173Z,55.8
2018-09-25T08:08:51.137Z,55.9
2018-09-25T08:09:41.042Z,56
2018-09-25T08:10:31.400Z,56.1
2018-09-25T08:11:21.571Z,56.2
2018-09-25T08:12:11.580Z,56.3
2018-09-25T08:13:01.275Z,56.4
2018-09-25T08:13:51.632Z,56.5
2018-09-25T08:14:41.760Z,56.6
2018-09-25T08:15:32.105Z,56.8
2018-09-25T08:16:21.810Z,56.9
2018-09-25T08:17:11.602Z,57.1
2018-09-25T08:18:01.653Z,57.2
2018-09-25T08:18:51.720Z,57.3
2018-09-25T08:19:42.071Z,57.3
2018-09-25T08:20:32.113Z,57.4
2018-09-25T08:21:21.624Z,57.6
2018-09-25T08:22:11.967Z,57.7
2018-09-25T08:23:02.310Z,57.8
2018-09-25T08:23:52.383Z,57.9
2018-09-25T08:24:42.145Z,58.1
2018-09-25T08:25:32.504Z,58.1
2018-09-25T08:26:22.557Z,58.3
2018-09-25T08:27:12.615Z,58.4
2018-09-25T08:28:52.756Z,58.7
2018-09-25T08:29:43.011Z,58.8
2018-09-25T08:30:32.902Z,58.9
2018-09-25T08:31:22.929Z,58.9
2018-09-25T08:32:12.711Z,59.1
2018-09-25T08:33:03.079Z,59.2
2018-09-25T08:33:53.113Z,59.3
2018-09-25T08:34:43.429Z,59.4
2018-09-25T08:35:33.254Z,59.4
2018-09-25T08:36:23.304Z,59.6
2018-09-25T08:37:13.429Z,59.6
2018-09-25T08:38:03.439Z,59.8
2018-09-25T08:38:53.437Z,59.9
2018-09-25T08:39:43.554Z,59.9
2018-09-25T08:40:33.664Z,59.7
2018-09-25T08:41:23.698Z,59.6
2018-09-25T08:42:13.744Z,59.6
2018-09-25T08:43:03.818Z,59.6
2018-09-25T08:43:53.863Z,59.6
2018-09-25T08:44:43.967Z,59.8
2018-09-25T08:45:34.008Z,59.9
2018-09-25T08:46:23.763Z,60
2018-09-25T08:47:14.119Z,60.1
2018-09-25T08:48:03.903Z,60.1
2018-09-25T08:48:54.236Z,60.2
2018-09-25T08:49:44.310Z,60.3
2018-09-25T08:50:34.363Z,60.4
2018-09-25T08:51:24.434Z,60.5
2018-09-25T08:52:14.219Z,60.6
2018-09-25T08:53:04.578Z,60.8
2018-09-25T08:53:54.688Z,60.9
2018-09-25T08:54:44.691Z,60.9
2018-09-25T08:55:34.750Z,61
2018-09-25T08:56:24.821Z,61.1
2018-09-25T08:57:14.580Z,61.2
2018-09-25T08:58:04.925Z,61.3
2018-09-25T08:58:54.988Z,61.3
2018-09-25T08:59:45.049Z,61.4
2018-09-25T09:00:35.375Z,61.6
2018-09-25T09:01:25.483Z,61.7
2018-09-25T09:02:15.240Z,61.8
2018-09-25T09:03:05.303Z,61.8
2018-09-25T09:03:55.383Z,61.9
2018-09-25T09:04:45.442Z,62
2018-09-25T09:05:35.489Z,62.1
2018-09-25T09:06:25.808Z,62.2
2018-09-25T09:07:15.609Z,62.3
2018-09-25T09:08:05.389Z,62.3
2018-09-25T09:08:55.784Z,62.4
2018-09-25T09:09:45.796Z,62.4
2018-09-25T09:10:35.861Z,62.5
2018-09-25T09:11:25.969Z,62.6
2018-09-25T09:12:16.004Z,62.7
2018-09-25T09:13:06.061Z,62.8
2018-09-25T09:13:55.855Z,62.9
2018-09-25T09:14:46.174Z,62.8
2018-09-25T09:15:36.237Z,62.7
2018-09-25T09:16:26.293Z,62.8
2018-09-25T09:17:16.361Z,62.9
2018-09-25T09:18:06.469Z,63
2018-09-25T09:18:56.490Z,63.1
2018-09-25T09:19:46.554Z,63.1
2018-09-25T09:20:36.606Z,63.1
2018-09-25T09:21:26.933Z,63.3
2018-09-25T09:22:16.469Z,63.4
2018-09-25T09:39:08.145Z,65.1
2018-09-25T09:39:57.952Z,65.2
2018-09-25T09:40:48.002Z,65.3
2018-09-25T09:41:39.637Z,65.4
2018-09-25T09:42:28.146Z,65.4
2018-09-25T09:43:18.194Z,65.5
2018-09-25T09:44:08.267Z,65.6
2018-09-25T09:44:58.324Z,65.6
2018-09-25T09:45:48.394Z,65.7
2018-09-25T09:46:38.454Z,65.8
2018-09-25T09:47:28.517Z,65.9
2018-09-25T09:48:18.567Z,65.9
2018-09-25T09:49:08.629Z,66
2018-09-25T09:49:58.983Z,66.1
2018-09-25T09:50:48.744Z,66.2
2018-09-25T09:51:38.834Z,66.3
2018-09-25T09:52:28.869Z,66.3
2018-09-25T09:53:18.937Z,66.4
2018-09-25T09:54:09.004Z,66.5
2018-09-25T09:54:59.064Z,66.6
2018-09-25T09:55:49.426Z,66.6
2018-09-25T09:56:39.200Z,66.7
2018-09-25T09:57:28.965Z,66.8
2018-09-25T09:58:19.021Z,66.9
2018-09-25T09:59:09.372Z,66.9
2018-09-25T09:59:59.485Z,67
2018-09-25T10:00:49.740Z,67.1
2018-09-25T10:01:38.991Z,67.1
2018-09-25T10:02:29.628Z,67.2
2018-09-25T10:03:19.685Z,67.2
2018-09-25T10:04:09.468Z,67.2
2018-09-25T10:04:59.524Z,67.3
2018-09-25T10:05:50.286Z,67.4
2018-09-25T10:06:40.123Z,67.6
2018-09-25T10:07:30.007Z,67.6
2018-09-25T10:08:20.075Z,67.7
2018-09-25T10:09:10.183Z,67.8
2018-09-25T10:09:59.902Z,67.9
2018-09-25T10:10:49.980Z,67.9
2018-09-25T10:11:40.027Z,68
2018-09-25T10:12:30.638Z,68.1
2018-09-25T10:13:20.451Z,67.9
2018-09-25T10:14:10.517Z,66.9
2018-09-25T10:15:00.573Z,65.6
2018-09-25T10:15:50.879Z,65.3
2018-09-25T10:16:40.700Z,65.4
2018-09-25T10:17:30.480Z,65.8
2018-09-25T10:18:21.020Z,66
2018-09-25T10:19:10.870Z,66.2
2018-09-25T10:20:00.933Z,66.3
2018-09-25T10:20:51.015Z,66.4
2018-09-25T10:21:41.089Z,66.4
2018-09-25T10:22:31.118Z,66.6
2018-09-25T10:23:21.189Z,66.7
2018-09-25T10:24:11.257Z,66.9
2018-09-25T10:25:01.341Z,67.1
2018-09-25T10:25:51.401Z,67.3
2018-09-25T10:26:41.448Z,67.4
2018-09-25T10:27:31.671Z,67.6
2018-09-25T10:28:21.566Z,67.7
2018-09-25T10:29:11.633Z,67.8
2018-09-25T10:30:01.687Z,67.9
2018-09-25T10:30:51.460Z,68.1
2018-09-25T10:31:41.825Z,68.2
2018-09-25T10:32:31.881Z,68.3
2018-09-25T10:33:21.986Z,68.4
2018-09-25T10:34:12.285Z,68.6
2018-09-25T10:35:02.067Z,68.7
2018-09-25T10:35:52.143Z,68.8
2018-09-25T10:36:42.198Z,68.9
2018-09-25T10:37:31.976Z,68.9
2018-09-25T10:38:22.326Z,69.1
2018-09-25T10:39:12.375Z,69.1
2018-09-25T10:40:02.445Z,69.3
2018-09-25T10:40:52.709Z,69.3
2018-09-25T10:41:42.557Z,69.5
2018-09-25T10:42:32.652Z,69.6
2018-09-25T10:43:22.689Z,69.7
2018-09-25T10:44:12.582Z,69.8
2018-09-25T10:45:02.807Z,69.8
2018-09-25T10:45:52.935Z,69.6
2018-09-25T10:46:42.939Z,69.4
2018-09-25T10:47:33.003Z,69.4
2018-09-25T10:48:23.066Z,69.5
2018-09-25T10:49:13.154Z,69.8
2018-09-25T10:50:03.426Z,70
2018-09-25T10:50:53.241Z,70.2
2018-09-25T10:51:43.054Z,70.3
2018-09-25T10:52:33.386Z,70.4
2018-09-25T10:53:23.434Z,70.2
2018-09-25T10:54:13.512Z,69.8
2018-09-25T10:55:03.536Z,69.3
2018-09-25T10:55:54.022Z,68.9
2018-09-25T10:56:43.684Z,68.6
2018-09-25T10:57:33.769Z,68.5
2018-09-25T10:58:24.019Z,68.5
2018-09-25T10:59:13.904Z,68.8
2018-09-25T11:00:03.933Z,69.3
2018-09-25T11:00:53.997Z,69.8
2018-09-25T11:01:44.061Z,70
2018-09-25T11:02:33.849Z,70.1
2018-09-25T11:03:24.296Z,70.3
2018-09-25T11:04:14.252Z,70.3
2018-09-25T11:05:04.574Z,70.1
2018-09-25T11:05:54.379Z,69.6
2018-09-25T11:06:44.767Z,69.1
2018-09-25T11:07:34.507Z,68.7
2018-09-25T11:08:24.564Z,68.4
2018-09-25T11:09:14.629Z,68.3
2018-09-25T11:10:05.364Z,68.4
2018-09-25T11:10:54.786Z,68.7
2018-09-25T11:11:44.805Z,69.1
2018-09-25T11:12:34.641Z,69.4
2018-09-25T11:13:24.939Z,69.8
2018-09-25T11:14:14.724Z,69.9
2018-09-25T11:15:05.071Z,70
2018-09-25T11:15:55.129Z,70.1
2018-09-25T11:16:45.236Z,70.2
2018-09-25T11:17:35.373Z,70.3
2018-09-25T11:18:25.324Z,70.4
2018-09-25T11:19:15.380Z,70.6
2018-09-25T11:20:05.444Z,70.6
2018-09-25T11:20:55.261Z,70.7
2018-09-25T11:21:45.613Z,70.8
2018-09-25T11:22:35.630Z,70.8
2018-09-25T11:23:25.416Z,70.9
2018-09-25T11:24:15.750Z,70.9
2018-09-25T11:25:05.815Z,70.9
2018-09-25T11:25:55.883Z,71
2018-09-25T11:26:45.938Z,71.1
2018-09-25T11:27:36.014Z,71.1
2018-09-25T11:28:26.059Z,71.2
2018-09-25T11:29:16.141Z,71.2
2018-09-25T11:30:05.907Z,71.3
2018-09-25T11:30:56.523Z,71.3
2018-09-25T11:31:46.588Z,71.3
2018-09-25T11:32:36.095Z,71.4
2018-09-25T11:33:26.200Z,71.4
2018-09-25T11:34:16.508Z,71.6
2018-09-25T11:35:06.734Z,71.6
2018-09-25T11:35:56.635Z,71.6
2018-09-25T11:36:46.412Z,71.6
2018-09-25T11:37:36.749Z,71.6
2018-09-25T11:38:26.822Z,71.7
2018-09-25T11:39:16.892Z,71.7
2018-09-25T11:40:06.959Z,71.8
2018-09-25T11:40:56.960Z,71.8
2018-09-25T11:41:47.127Z,71.8
2018-09-25T11:42:37.142Z,71.8
2018-09-25T11:43:27.200Z,71.9
2018-09-25T11:44:17.257Z,71.9
2018-09-25T11:45:07.312Z,71.9
2018-09-25T11:45:57.485Z,71.9
2018-09-25T11:46:47.123Z,71.9
2018-09-25T11:47:37.512Z,71.9
2018-09-25T11:48:27.299Z,71.9
2018-09-25T11:49:17.636Z,71.9
2018-09-25T11:50:07.694Z,71.8
2018-09-25T11:50:57.748Z,71.8
2018-09-25T11:51:47.817Z,71.9
2018-09-25T11:52:38.204Z,72
2018-09-25T11:53:28.194Z,72.2
2018-09-25T11:54:18.010Z,72.3
2018-09-25T11:55:07.807Z,72.4
2018-09-25T11:55:57.841Z,72.6
2018-09-25T11:56:47.913Z,72.4
2018-09-25T11:57:37.984Z,72.3
2018-09-25T11:58:28.577Z,72.1
2018-09-25T11:59:18.093Z,71.9
2018-09-25T12:00:08.473Z,71.8
2018-09-25T12:00:58.241Z,71.7
2018-09-25T12:01:48.310Z,71.5
2018-09-25T12:02:38.636Z,71.6
2018-09-25T12:03:28.711Z,71.8
2018-09-25T12:04:18.487Z,71.8
2018-09-25T12:05:08.823Z,71.6
2018-09-25T12:05:58.593Z,71.2
2018-09-25T12:06:48.652Z,70.8
2018-09-25T12:07:39.009Z,70.6
2018-09-25T12:08:29.360Z,70.5
2018-09-25T12:09:18.673Z,70.6
2018-09-25T12:10:08.963Z,70.9
2018-09-25T12:10:58.773Z,71.1
2018-09-25T12:11:49.030Z,70.9
2018-09-25T12:12:39.116Z,70.4
2018-09-25T12:13:29.172Z,70.2
2018-09-25T12:14:19.512Z,69.9
2018-09-25T12:15:09.317Z,69.8
2018-09-25T12:15:59.369Z,69.7
2018-09-25T12:16:49.705Z,69.6
2018-09-25T12:17:39.479Z,69.8
2018-09-25T12:18:29.815Z,69.9
2018-09-25T12:19:19.879Z,70.3
2018-09-25T12:20:09.659Z,70.6
2018-09-25T12:20:59.707Z,70.8
2018-09-25T12:21:50.077Z,70.9
2018-09-25T12:22:40.136Z,70.7
2018-09-25T12:23:30.624Z,70.3
2018-09-25T12:24:20.498Z,70
2018-09-25T12:25:10.311Z,69.8
2018-09-25T12:26:00.374Z,69.5
2018-09-25T12:26:50.454Z,69.3
2018-09-25T12:27:40.512Z,69.1
2018-09-25T12:28:30.569Z,68.9
2018-09-25T12:29:20.342Z,68.8
2018-09-25T12:30:10.696Z,68.3
2018-09-25T12:31:00.756Z,67.6
2018-09-25T12:31:50.535Z,67.1
2018-09-25T12:32:42.022Z,66.7
2018-09-25T12:33:30.666Z,66.1
2018-09-25T12:34:21.001Z,65.5
2018-09-25T12:35:11.068Z,64.9
2018-09-25T12:36:00.846Z,64.6
2018-09-25T12:36:51.195Z,64.7
2018-09-25T12:37:41.255Z,63.7
2018-09-25T12:38:31.314Z,63.3
2018-09-25T12:39:21.383Z,63.1
2018-09-25T12:40:11.738Z,62.7
2018-09-25T12:41:01.790Z,62.3
2018-09-25T12:41:51.557Z,61.9
2018-09-25T12:42:41.637Z,61.8
2018-09-25T12:43:31.701Z,61.9
2018-09-25T12:44:21.752Z,62.1
2018-09-25T12:45:11.812Z,62.5
2018-09-25T12:46:01.877Z,61.4
2018-09-25T12:46:51.933Z,62.4
2018-09-25T12:47:41.719Z,65.6
2018-09-25T12:48:31.777Z,66.1
2018-09-25T12:49:22.130Z,66.9
2018-09-25T12:50:11.921Z,67.8
2018-09-25T12:51:02.250Z,68.1
2018-09-25T12:51:52.317Z,67.8
2018-09-25T12:52:42.391Z,67.6
2018-09-25T12:53:32.440Z,67.7
2018-09-25T12:54:22.506Z,67.8
2018-09-25T12:55:12.279Z,68
2018-09-25T12:56:02.594Z,68.2
2018-09-25T12:56:52.693Z,68.4
2018-09-25T12:57:42.751Z,68.3
2018-09-25T12:58:32.809Z,68.2
2018-09-25T12:59:22.877Z,67.9
2018-09-25T13:00:12.944Z,67.6
2018-09-25T13:01:03.018Z,67.4
2018-09-25T13:01:53.067Z,67.4
2018-09-25T13:02:43.141Z,67.5
2018-09-25T13:03:33.229Z,67.7
2018-09-25T13:04:23.246Z,67.9
2018-09-25T13:05:13.320Z,68
2018-09-25T13:06:03.385Z,68
2018-09-25T13:06:53.437Z,68
2018-09-25T13:07:43.503Z,68
2018-09-25T13:08:33.563Z,68
2018-09-25T13:09:23.636Z,68
2018-09-25T13:10:13.711Z,68.1
2018-09-25T13:11:03.754Z,68.1
2018-09-25T13:11:53.811Z,68.1
2018-09-25T13:12:43.606Z,68.1
2018-09-25T13:13:33.776Z,68.1
2018-09-25T13:14:24.003Z,68.1
2018-09-25T13:15:14.065Z,68.1
2018-09-25T13:16:04.473Z,67.8
2018-09-25T13:16:53.904Z,67.6
2018-09-25T13:17:44.255Z,67.4
2018-09-25T13:18:34.325Z,67.1
2018-09-25T13:19:24.373Z,66.9
2018-09-25T13:20:14.445Z,66.6
2018-09-25T13:21:04.509Z,66.4
2018-09-25T13:21:54.283Z,66.3
2018-09-25T13:22:44.625Z,66.1
2018-09-25T13:23:34.683Z,65.3
2018-09-25T13:24:24.780Z,64.4
2018-09-25T13:25:15.077Z,63.8
2018-09-25T13:26:04.888Z,63.3
2018-09-25T13:26:54.943Z,62.8
2018-09-25T13:27:45.000Z,62.1
2018-09-25T13:28:35.105Z,61.5
2018-09-25T13:29:25.140Z,60.9
2018-09-25T13:30:14.920Z,60.3
2018-09-25T13:31:05.249Z,59.6
2018-09-25T13:31:55.318Z,58.9
2018-09-25T13:32:45.378Z,58.2
2018-09-25T13:33:35.450Z,57.6
2018-09-25T13:34:25.517Z,57
2018-09-25T13:35:15.614Z,56.4
2018-09-25T13:36:05.628Z,55.9
2018-09-25T13:36:55.695Z,55.4
2018-09-25T13:37:45.752Z,54.8
2018-09-25T13:38:35.820Z,54.3
2018-09-25T13:39:25.872Z,53.8
2018-09-25T13:40:15.939Z,53.3
2018-09-25T13:41:06.022Z,52.8
2018-09-25T13:41:55.781Z,52.3
2018-09-25T13:42:46.137Z,51.7
2018-09-25T13:43:36.184Z,51.3
2018-09-25T13:44:26.318Z,50.8
2018-09-25T13:45:16.332Z,50.3
2018-09-25T13:46:06.090Z,49.8
2018-09-25T13:46:56.753Z,49.3
2018-09-25T13:47:46.501Z,48.9
2018-09-25T13:48:36.618Z,48.4
2018-09-25T13:49:26.681Z,48.1
2018-09-25T13:50:16.696Z,47.6
2018-09-25T13:51:06.752Z,47.2
2018-09-25T13:51:57.066Z,46.8
2018-09-25T13:52:46.611Z,46.4
2018-09-25T13:53:36.934Z,45.9
2018-09-25T13:54:27.008Z,45.6
2018-09-25T13:55:17.073Z,45.2
2018-09-25T13:56:07.385Z,44.8
2018-09-25T13:56:57.198Z,44.4
2018-09-25T13:57:47.224Z,44.1
2018-09-25T13:58:37.029Z,43.7
2018-09-25T13:59:27.386Z,43.4
2018-09-25T14:00:17.445Z,43.1
2018-09-25T14:01:07.496Z,42.8
2018-09-25T14:01:57.286Z,42.5